sensor_id;sensor_type;location;lat;lon;timestamp;P1;durP1;ratioP1;P2;durP2;ratioP2
78612;SDS011;67933;51.060;3.638;2023-07-09T00:00:49;17.98;;;14.38;;
78612;SDS011;67933;51.060;3.638;2023-07-09T00:03:16;18.50;;;14.02;;
78612;SDS011;67933;51.060;3.638;2023-07-09T00:05:42;23.38;;;17.50;;
78612;SDS011;67933;51.060;3.638;2023-07-09T00:08:24;20.92;;;17.70;;
78612;SDS011;67933;51.060;3.638;2023-07-09T00:13:18;32.67;;;23.10;;
78612;SDS011;67933;51.060;3.638;2023-07-09T00:15:43;34.97;;;25.45;;
78612;SDS011;67933;51.060;3.638;2023-07-09T00:18:09;32.95;;;26.35;;
78612;SDS011;67933;51.060;3.638;2023-07-09T00:20:35;30.13;;;23.85;;
78612;SDS011;67933;51.060;3.638;2023-07-09T00:23:00;29.95;;;23.25;;
78612;SDS011;67933;51.060;3.638;2023-07-09T00:25:29;29.83;;;25.05;;
78612;SDS011;67933;51.060;3.638;2023-07-09T00:27:55;35.72;;;28.70;;
78612;SDS011;67933;51.060;3.638;2023-07-09T00:30:21;30.60;;;24.05;;
78612;SDS011;67933;51.060;3.638;2023-07-09T00:32:48;30.50;;;25.38;;
78612;SDS011;67933;51.060;3.638;2023-07-09T00:35:14;36.22;;;26.85;;
78612;SDS011;67933;51.060;3.638;2023-07-09T00:37:40;37.33;;;29.02;;
78612;SDS011;67933;51.060;3.638;2023-07-09T00:40:14;39.13;;;31.95;;
78612;SDS011;67933;51.060;3.638;2023-07-09T00:42:42;35.58;;;30.20;;
78612;SDS011;67933;51.060;3.638;2023-07-09T00:45:15;34.15;;;28.33;;
78612;SDS011;67933;51.060;3.638;2023-07-09T00:47:52;34.17;;;27.25;;
78612;SDS011;67933;51.060;3.638;2023-07-09T00:55:43;34.97;;;29.65;;
78612;SDS011;67933;51.060;3.638;2023-07-09T00:58:12;36.10;;;29.20;;
78612;SDS011;67933;51.060;3.638;2023-07-09T01:00:44;37.60;;;30.90;;
78612;SDS011;67933;51.060;3.638;2023-07-09T01:03:55;38.60;;;31.15;;
78612;SDS011;67933;51.060;3.638;2023-07-09T01:06:07;39.05;;;32.97;;
78612;SDS011;67933;51.060;3.638;2023-07-09T01:08:35;45.10;;;35.70;;
78612;SDS011;67933;51.060;3.638;2023-07-09T01:11:02;43.28;;;34.50;;
78612;SDS011;67933;51.060;3.638;2023-07-09T01:13:28;45.38;;;36.17;;
78612;SDS011;67933;51.060;3.638;2023-07-09T01:15:57;44.65;;;38.03;;
78612;SDS011;67933;51.060;3.638;2023-07-09T01:18:23;51.05;;;40.40;;
78612;SDS011;67933;51.060;3.638;2023-07-09T01:20:49;49.30;;;41.28;;
78612;SDS011;67933;51.060;3.638;2023-07-09T01:23:17;65.35;;;49.90;;
78612;SDS011;67933;51.060;3.638;2023-07-09T01:25:45;57.08;;;42.88;;
78612;SDS011;67933;51.060;3.638;2023-07-09T01:28:17;53.03;;;43.75;;
78612;SDS011;67933;51.060;3.638;2023-07-09T01:30:43;60.13;;;45.72;;
78612;SDS011;67933;51.060;3.638;2023-07-09T01:33:08;63.53;;;48.13;;
78612;SDS011;67933;51.060;3.638;2023-07-09T01:35:35;70.57;;;54.15;;
78612;SDS011;67933;51.060;3.638;2023-07-09T01:38:02;74.45;;;56.17;;
78612;SDS011;67933;51.060;3.638;2023-07-09T01:40:31;75.25;;;57.55;;
78612;SDS011;67933;51.060;3.638;2023-07-09T01:42:57;70.53;;;54.55;;
78612;SDS011;67933;51.060;3.638;2023-07-09T01:45:24;68.45;;;53.33;;
78612;SDS011;67933;51.060;3.638;2023-07-09T01:47:50;71.28;;;54.88;;
78612;SDS011;67933;51.060;3.638;2023-07-09T01:50:16;71.65;;;54.65;;
78612;SDS011;67933;51.060;3.638;2023-07-09T01:52:43;79.55;;;57.50;;
78612;SDS011;67933;51.060;3.638;2023-07-09T01:55:11;72.10;;;54.92;;
78612;SDS011;67933;51.060;3.638;2023-07-09T01:57:38;72.55;;;54.42;;
78612;SDS011;67933;51.060;3.638;2023-07-09T02:02:36;73.10;;;52.97;;
78612;SDS011;67933;51.060;3.638;2023-07-09T02:05:04;74.32;;;55.63;;
78612;SDS011;67933;51.060;3.638;2023-07-09T02:07:30;71.72;;;54.08;;
78612;SDS011;67933;51.060;3.638;2023-07-09T02:09:57;76.13;;;55.60;;
78612;SDS011;67933;51.060;3.638;2023-07-09T02:12:23;75.82;;;55.47;;
78612;SDS011;67933;51.060;3.638;2023-07-09T02:14:49;80.03;;;56.85;;
78612;SDS011;67933;51.060;3.638;2023-07-09T02:17:15;72.75;;;56.92;;
78612;SDS011;67933;51.060;3.638;2023-07-09T02:19:40;70.00;;;53.53;;
78612;SDS011;67933;51.060;3.638;2023-07-09T02:22:06;77.05;;;59.08;;
78612;SDS011;67933;51.060;3.638;2023-07-09T02:24:33;77.20;;;58.10;;
78612;SDS011;67933;51.060;3.638;2023-07-09T02:26:59;77.28;;;59.97;;
78612;SDS011;67933;51.060;3.638;2023-07-09T02:29:26;79.65;;;60.30;;
78612;SDS011;67933;51.060;3.638;2023-07-09T02:36:45;91.82;;;64.18;;
78612;SDS011;67933;51.060;3.638;2023-07-09T02:39:12;105.40;;;74.13;;
78612;SDS011;67933;51.060;3.638;2023-07-09T02:41:41;109.85;;;78.22;;
78612;SDS011;67933;51.060;3.638;2023-07-09T02:44:07;101.50;;;72.95;;
78612;SDS011;67933;51.060;3.638;2023-07-09T02:46:33;99.57;;;75.47;;
78612;SDS011;67933;51.060;3.638;2023-07-09T02:48:59;104.65;;;74.55;;
78612;SDS011;67933;51.060;3.638;2023-07-09T02:51:25;100.45;;;73.43;;
78612;SDS011;67933;51.060;3.638;2023-07-09T02:53:55;107.60;;;74.03;;
78612;SDS011;67933;51.060;3.638;2023-07-09T02:56:22;125.13;;;86.35;;
78612;SDS011;67933;51.060;3.638;2023-07-09T02:58:49;107.53;;;73.07;;
78612;SDS011;67933;51.060;3.638;2023-07-09T03:01:15;112.22;;;80.68;;
78612;SDS011;67933;51.060;3.638;2023-07-09T03:03:40;131.00;;;93.60;;
78612;SDS011;67933;51.060;3.638;2023-07-09T03:06:06;118.15;;;86.03;;
78612;SDS011;67933;51.060;3.638;2023-07-09T03:08:32;126.93;;;88.45;;
78612;SDS011;67933;51.060;3.638;2023-07-09T03:10:57;123.97;;;85.63;;
78612;SDS011;67933;51.060;3.638;2023-07-09T03:13:23;120.40;;;85.13;;
78612;SDS011;67933;51.060;3.638;2023-07-09T03:15:55;128.10;;;89.90;;
78612;SDS011;67933;51.060;3.638;2023-07-09T03:18:21;127.07;;;91.13;;
78612;SDS011;67933;51.060;3.638;2023-07-09T03:20:47;117.28;;;83.75;;
78612;SDS011;67933;51.060;3.638;2023-07-09T03:23:13;117.15;;;84.20;;
78612;SDS011;67933;51.060;3.638;2023-07-09T03:25:42;115.82;;;83.93;;
78612;SDS011;67933;51.060;3.638;2023-07-09T03:28:08;131.10;;;93.00;;
78612;SDS011;67933;51.060;3.638;2023-07-09T03:30:34;138.45;;;96.70;;
78612;SDS011;67933;51.060;3.638;2023-07-09T03:32:59;126.78;;;88.50;;
78612;SDS011;67933;51.060;3.638;2023-07-09T03:35:25;127.68;;;91.43;;
78612;SDS011;67933;51.060;3.638;2023-07-09T03:37:52;130.10;;;89.75;;
78612;SDS011;67933;51.060;3.638;2023-07-09T03:40:21;124.55;;;91.95;;
78612;SDS011;67933;51.060;3.638;2023-07-09T03:42:48;133.73;;;93.03;;
78612;SDS011;67933;51.060;3.638;2023-07-09T03:45:13;129.10;;;89.95;;
78612;SDS011;67933;51.060;3.638;2023-07-09T03:47:39;128.13;;;88.88;;
78612;SDS011;67933;51.060;3.638;2023-07-09T03:50:06;128.55;;;90.60;;
78612;SDS011;67933;51.060;3.638;2023-07-09T03:52:33;138.48;;;96.28;;
78612;SDS011;67933;51.060;3.638;2023-07-09T03:54:59;135.43;;;93.90;;
78612;SDS011;67933;51.060;3.638;2023-07-09T03:57:26;137.73;;;95.43;;
78612;SDS011;67933;51.060;3.638;2023-07-09T03:59:52;133.77;;;91.43;;
78612;SDS011;67933;51.060;3.638;2023-07-09T04:02:17;137.13;;;94.03;;
78612;SDS011;67933;51.060;3.638;2023-07-09T04:04:43;144.25;;;96.10;;
78612;SDS011;67933;51.060;3.638;2023-07-09T04:07:09;136.43;;;89.80;;
78612;SDS011;67933;51.060;3.638;2023-07-09T04:09:34;136.23;;;95.90;;
78612;SDS011;67933;51.060;3.638;2023-07-09T04:12:00;126.00;;;90.05;;
78612;SDS011;67933;51.060;3.638;2023-07-09T04:14:26;136.73;;;92.60;;
78612;SDS011;67933;51.060;3.638;2023-07-09T04:16:52;138.95;;;91.38;;
78612;SDS011;67933;51.060;3.638;2023-07-09T04:19:18;133.13;;;94.03;;
78612;SDS011;67933;51.060;3.638;2023-07-09T04:21:43;137.77;;;96.10;;
78612;SDS011;67933;51.060;3.638;2023-07-09T04:24:09;131.30;;;91.38;;
78612;SDS011;67933;51.060;3.638;2023-07-09T04:26:34;132.48;;;91.95;;
78612;SDS011;67933;51.060;3.638;2023-07-09T04:29:00;134.73;;;92.78;;
78612;SDS011;67933;51.060;3.638;2023-07-09T04:31:26;133.23;;;92.80;;
78612;SDS011;67933;51.060;3.638;2023-07-09T04:33:51;126.00;;;89.18;;
78612;SDS011;67933;51.060;3.638;2023-07-09T04:36:17;130.05;;;90.70;;
78612;SDS011;67933;51.060;3.638;2023-07-09T04:38:43;125.50;;;87.82;;
78612;SDS011;67933;51.060;3.638;2023-07-09T04:41:08;134.52;;;91.25;;
78612;SDS011;67933;51.060;3.638;2023-07-09T04:43:34;122.35;;;86.20;;
78612;SDS011;67933;51.060;3.638;2023-07-09T04:45:59;129.35;;;88.85;;
78612;SDS011;67933;51.060;3.638;2023-07-09T04:48:25;132.70;;;89.95;;
78612;SDS011;67933;51.060;3.638;2023-07-09T04:50:50;126.95;;;86.10;;
78612;SDS011;67933;51.060;3.638;2023-07-09T04:53:16;127.43;;;87.57;;
78612;SDS011;67933;51.060;3.638;2023-07-09T04:55:42;122.45;;;85.60;;
78612;SDS011;67933;51.060;3.638;2023-07-09T04:58:07;126.00;;;87.10;;
78612;SDS011;67933;51.060;3.638;2023-07-09T05:00:33;124.28;;;83.82;;
78612;SDS011;67933;51.060;3.638;2023-07-09T05:02:58;124.70;;;86.57;;
78612;SDS011;67933;51.060;3.638;2023-07-09T05:05:24;126.80;;;85.85;;
78612;SDS011;67933;51.060;3.638;2023-07-09T05:07:49;119.35;;;81.70;;
78612;SDS011;67933;51.060;3.638;2023-07-09T05:10:15;115.97;;;83.30;;
78612;SDS011;67933;51.060;3.638;2023-07-09T05:12:48;115.25;;;79.60;;
78612;SDS011;67933;51.060;3.638;2023-07-09T05:15:15;116.10;;;76.20;;
78612;SDS011;67933;51.060;3.638;2023-07-09T05:17:41;121.70;;;83.88;;
78612;SDS011;67933;51.060;3.638;2023-07-09T05:20:06;116.47;;;82.63;;
78612;SDS011;67933;51.060;3.638;2023-07-09T05:22:32;117.95;;;84.22;;
78612;SDS011;67933;51.060;3.638;2023-07-09T05:24:57;122.70;;;86.63;;
78612;SDS011;67933;51.060;3.638;2023-07-09T05:27:23;120.25;;;83.35;;
78612;SDS011;67933;51.060;3.638;2023-07-09T05:29:48;119.85;;;83.75;;
78612;SDS011;67933;51.060;3.638;2023-07-09T05:32:13;126.32;;;85.85;;
78612;SDS011;67933;51.060;3.638;2023-07-09T05:34:39;115.07;;;79.13;;
78612;SDS011;67933;51.060;3.638;2023-07-09T05:37:04;124.65;;;82.13;;
78612;SDS011;67933;51.060;3.638;2023-07-09T05:39:30;112.70;;;74.20;;
78612;SDS011;67933;51.060;3.638;2023-07-09T05:41:55;108.05;;;72.25;;
78612;SDS011;67933;51.060;3.638;2023-07-09T05:44:21;103.53;;;69.03;;
78612;SDS011;67933;51.060;3.638;2023-07-09T05:46:46;102.72;;;67.32;;
78612;SDS011;67933;51.060;3.638;2023-07-09T05:49:11;93.22;;;63.83;;
78612;SDS011;67933;51.060;3.638;2023-07-09T05:51:37;85.85;;;57.58;;
78612;SDS011;67933;51.060;3.638;2023-07-09T05:54:02;83.32;;;57.65;;
78612;SDS011;67933;51.060;3.638;2023-07-09T05:56:28;78.25;;;54.63;;
78612;SDS011;67933;51.060;3.638;2023-07-09T05:58:53;72.93;;;47.30;;
78612;SDS011;67933;51.060;3.638;2023-07-09T06:01:19;66.20;;;44.95;;
78612;SDS011;67933;51.060;3.638;2023-07-09T06:03:45;65.15;;;43.83;;
78612;SDS011;67933;51.060;3.638;2023-07-09T06:06:11;62.40;;;44.30;;
78612;SDS011;67933;51.060;3.638;2023-07-09T06:08:37;62.70;;;42.67;;
78612;SDS011;67933;51.060;3.638;2023-07-09T06:11:03;67.18;;;42.08;;
78612;SDS011;67933;51.060;3.638;2023-07-09T06:13:30;55.13;;;37.67;;
78612;SDS011;67933;51.060;3.638;2023-07-09T06:15:56;55.03;;;38.47;;
78612;SDS011;67933;51.060;3.638;2023-07-09T06:18:22;45.30;;;32.00;;
78612;SDS011;67933;51.060;3.638;2023-07-09T06:20:49;43.30;;;31.17;;
78612;SDS011;67933;51.060;3.638;2023-07-09T06:23:17;46.08;;;30.67;;
78612;SDS011;67933;51.060;3.638;2023-07-09T06:25:44;47.13;;;30.33;;
78612;SDS011;67933;51.060;3.638;2023-07-09T06:28:13;43.22;;;28.27;;
78612;SDS011;67933;51.060;3.638;2023-07-09T06:30:40;38.03;;;25.35;;
78612;SDS011;67933;51.060;3.638;2023-07-09T06:33:05;37.95;;;26.10;;
78612;SDS011;67933;51.060;3.638;2023-07-09T06:35:31;36.10;;;24.35;;
78612;SDS011;67933;51.060;3.638;2023-07-09T06:37:57;30.63;;;22.67;;
78612;SDS011;67933;51.060;3.638;2023-07-09T06:40:23;33.53;;;22.08;;
78612;SDS011;67933;51.060;3.638;2023-07-09T06:42:49;28.25;;;19.50;;
78612;SDS011;67933;51.060;3.638;2023-07-09T06:45:14;24.92;;;17.27;;
78612;SDS011;67933;51.060;3.638;2023-07-09T06:47:40;22.45;;;14.95;;
78612;SDS011;67933;51.060;3.638;2023-07-09T06:50:05;20.52;;;13.40;;
78612;SDS011;67933;51.060;3.638;2023-07-09T06:52:31;18.50;;;13.20;;
78612;SDS011;67933;51.060;3.638;2023-07-09T06:54:57;19.13;;;12.88;;
78612;SDS011;67933;51.060;3.638;2023-07-09T06:57:22;16.77;;;12.65;;
78612;SDS011;67933;51.060;3.638;2023-07-09T06:59:47;20.38;;;13.88;;
78612;SDS011;67933;51.060;3.638;2023-07-09T07:02:13;17.90;;;12.80;;
78612;SDS011;67933;51.060;3.638;2023-07-09T07:04:38;19.63;;;12.55;;
78612;SDS011;67933;51.060;3.638;2023-07-09T07:07:04;20.35;;;12.50;;
78612;SDS011;67933;51.060;3.638;2023-07-09T07:09:29;17.00;;;10.90;;
78612;SDS011;67933;51.060;3.638;2023-07-09T07:11:55;17.70;;;12.38;;
78612;SDS011;67933;51.060;3.638;2023-07-09T07:14:20;17.67;;;12.23;;
78612;SDS011;67933;51.060;3.638;2023-07-09T07:16:46;16.92;;;11.93;;
78612;SDS011;67933;51.060;3.638;2023-07-09T07:19:11;18.67;;;12.23;;
78612;SDS011;67933;51.060;3.638;2023-07-09T07:21:37;16.08;;;11.02;;
78612;SDS011;67933;51.060;3.638;2023-07-09T07:24:02;16.90;;;10.73;;
78612;SDS011;67933;51.060;3.638;2023-07-09T07:26:28;13.45;;;10.20;;
78612;SDS011;67933;51.060;3.638;2023-07-09T07:28:54;15.25;;;9.98;;
78612;SDS011;67933;51.060;3.638;2023-07-09T07:31:19;13.68;;;10.25;;
78612;SDS011;67933;51.060;3.638;2023-07-09T07:33:44;12.52;;;7.88;;
78612;SDS011;67933;51.060;3.638;2023-07-09T07:36:10;10.98;;;7.47;;
78612;SDS011;67933;51.060;3.638;2023-07-09T07:38:36;10.15;;;6.78;;
78612;SDS011;67933;51.060;3.638;2023-07-09T07:41:02;7.78;;;5.72;;
78612;SDS011;67933;51.060;3.638;2023-07-09T07:43:27;12.25;;;7.05;;
78612;SDS011;67933;51.060;3.638;2023-07-09T07:45:53;9.73;;;6.65;;
78612;SDS011;67933;51.060;3.638;2023-07-09T07:48:19;11.70;;;6.95;;
78612;SDS011;67933;51.060;3.638;2023-07-09T07:50:45;11.40;;;6.57;;
78612;SDS011;67933;51.060;3.638;2023-07-09T07:53:11;12.43;;;6.57;;
78612;SDS011;67933;51.060;3.638;2023-07-09T07:55:38;9.35;;;5.65;;
78612;SDS011;67933;51.060;3.638;2023-07-09T07:58:04;11.10;;;6.53;;
78612;SDS011;67933;51.060;3.638;2023-07-09T08:00:30;9.57;;;6.25;;
78612;SDS011;67933;51.060;3.638;2023-07-09T08:02:56;12.27;;;6.88;;
78612;SDS011;67933;51.060;3.638;2023-07-09T08:05:21;9.52;;;6.78;;
78612;SDS011;67933;51.060;3.638;2023-07-09T08:07:48;9.60;;;6.30;;
78612;SDS011;67933;51.060;3.638;2023-07-09T08:10:14;10.13;;;5.90;;
78612;SDS011;67933;51.060;3.638;2023-07-09T08:12:40;10.52;;;5.68;;
78612;SDS011;67933;51.060;3.638;2023-07-09T08:15:06;8.48;;;5.63;;
78612;SDS011;67933;51.060;3.638;2023-07-09T08:17:32;7.75;;;4.53;;
78612;SDS011;67933;51.060;3.638;2023-07-09T08:19:57;9.93;;;5.10;;
78612;SDS011;67933;51.060;3.638;2023-07-09T08:22:23;5.38;;;3.67;;
78612;SDS011;67933;51.060;3.638;2023-07-09T08:24:49;5.85;;;3.67;;
78612;SDS011;67933;51.060;3.638;2023-07-09T08:27:15;6.70;;;4.32;;
78612;SDS011;67933;51.060;3.638;2023-07-09T08:29:41;6.80;;;3.60;;
78612;SDS011;67933;51.060;3.638;2023-07-09T08:32:07;6.35;;;3.60;;
78612;SDS011;67933;51.060;3.638;2023-07-09T08:34:34;6.03;;;4.07;;
78612;SDS011;67933;51.060;3.638;2023-07-09T08:36:59;6.47;;;3.83;;
78612;SDS011;67933;51.060;3.638;2023-07-09T08:39:25;6.70;;;3.63;;
78612;SDS011;67933;51.060;3.638;2023-07-09T08:41:58;7.07;;;3.90;;
78612;SDS011;67933;51.060;3.638;2023-07-09T08:50:00;6.22;;;3.80;;
78612;SDS011;67933;51.060;3.638;2023-07-09T08:52:32;6.07;;;3.58;;
78612;SDS011;67933;51.060;3.638;2023-07-09T08:55:06;5.88;;;3.60;;
78612;SDS011;67933;51.060;3.638;2023-07-09T08:57:37;6.22;;;4.07;;
78612;SDS011;67933;51.060;3.638;2023-07-09T09:00:10;3.70;;;3.13;;
78612;SDS011;67933;51.060;3.638;2023-07-09T09:02:43;5.25;;;3.63;;
78612;SDS011;67933;51.060;3.638;2023-07-09T09:05:14;6.25;;;3.60;;
78612;SDS011;67933;51.060;3.638;2023-07-09T09:07:44;6.88;;;3.88;;
78612;SDS011;67933;51.060;3.638;2023-07-09T09:10:18;3.97;;;3.38;;
78612;SDS011;67933;51.060;3.638;2023-07-09T09:13:04;4.70;;;3.58;;
78612;SDS011;67933;51.060;3.638;2023-07-09T09:15:34;9.82;;;3.70;;
78612;SDS011;67933;51.060;3.638;2023-07-09T09:18:17;5.40;;;3.42;;
78612;SDS011;67933;51.060;3.638;2023-07-09T09:20:45;5.15;;;3.50;;
78612;SDS011;67933;51.060;3.638;2023-07-09T09:23:15;4.97;;;3.20;;
78612;SDS011;67933;51.060;3.638;2023-07-09T09:26:01;6.60;;;3.78;;
78612;SDS011;67933;51.060;3.638;2023-07-09T09:28:27;6.45;;;3.03;;
78612;SDS011;67933;51.060;3.638;2023-07-09T09:30:52;6.97;;;3.60;;
78612;SDS011;67933;51.060;3.638;2023-07-09T09:33:18;4.25;;;2.90;;
78612;SDS011;67933;51.060;3.638;2023-07-09T09:35:43;6.50;;;3.70;;
78612;SDS011;67933;51.060;3.638;2023-07-09T09:38:16;6.63;;;3.83;;
78612;SDS011;67933;51.060;3.638;2023-07-09T09:40:43;8.45;;;3.95;;
78612;SDS011;67933;51.060;3.638;2023-07-09T09:43:16;6.63;;;3.60;;
78612;SDS011;67933;51.060;3.638;2023-07-09T09:45:44;6.60;;;3.20;;
78612;SDS011;67933;51.060;3.638;2023-07-09T09:48:16;7.10;;;3.55;;
78612;SDS011;67933;51.060;3.638;2023-07-09T09:50:51;6.03;;;3.42;;
78612;SDS011;67933;51.060;3.638;2023-07-09T09:53:26;4.38;;;3.30;;
78612;SDS011;67933;51.060;3.638;2023-07-09T09:55:55;6.40;;;3.45;;
78612;SDS011;67933;51.060;3.638;2023-07-09T09:58:25;5.22;;;3.90;;
78612;SDS011;67933;51.060;3.638;2023-07-09T10:00:54;6.20;;;3.45;;
78612;SDS011;67933;51.060;3.638;2023-07-09T10:03:21;6.82;;;3.70;;
78612;SDS011;67933;51.060;3.638;2023-07-09T10:05:57;8.02;;;3.80;;
78612;SDS011;67933;51.060;3.638;2023-07-09T10:14:22;7.63;;;3.28;;
78612;SDS011;67933;51.060;3.638;2023-07-09T10:19:44;7.78;;;3.97;;
78612;SDS011;67933;51.060;3.638;2023-07-09T10:22:35;6.55;;;3.33;;
78612;SDS011;67933;51.060;3.638;2023-07-09T10:36:32;6.88;;;3.15;;
78612;SDS011;67933;51.060;3.638;2023-07-09T10:39:33;6.03;;;3.30;;
78612;SDS011;67933;51.060;3.638;2023-07-09T10:42:02;7.25;;;3.47;;
78612;SDS011;67933;51.060;3.638;2023-07-09T10:44:35;6.55;;;3.88;;
78612;SDS011;67933;51.060;3.638;2023-07-09T10:47:06;9.57;;;3.95;;
78612;SDS011;67933;51.060;3.638;2023-07-09T10:49:39;9.20;;;3.72;;
78612;SDS011;67933;51.060;3.638;2023-07-09T10:52:29;7.18;;;3.78;;
78612;SDS011;67933;51.060;3.638;2023-07-09T11:03:05;7.50;;;4.35;;
78612;SDS011;67933;51.060;3.638;2023-07-09T11:05:42;13.43;;;5.55;;
78612;SDS011;67933;51.060;3.638;2023-07-09T11:08:12;10.93;;;5.40;;
78612;SDS011;67933;51.060;3.638;2023-07-09T11:10:50;11.52;;;6.28;;
78612;SDS011;67933;51.060;3.638;2023-07-09T11:13:40;14.27;;;7.28;;
78612;SDS011;67933;51.060;3.638;2023-07-09T11:16:08;13.82;;;8.15;;
78612;SDS011;67933;51.060;3.638;2023-07-09T11:18:39;10.73;;;7.28;;
78612;SDS011;67933;51.060;3.638;2023-07-09T11:23:39;15.40;;;8.82;;
78612;SDS011;67933;51.060;3.638;2023-07-09T11:36:45;14.35;;;10.55;;
78612;SDS011;67933;51.060;3.638;2023-07-09T11:39:30;12.50;;;9.30;;
78612;SDS011;67933;51.060;3.638;2023-07-09T11:42:26;16.17;;;10.25;;
78612;SDS011;67933;51.060;3.638;2023-07-09T11:45:03;18.40;;;10.52;;
78612;SDS011;67933;51.060;3.638;2023-07-09T11:52:56;19.17;;;12.55;;
78612;SDS011;67933;51.060;3.638;2023-07-09T11:55:41;15.68;;;10.80;;
78612;SDS011;67933;51.060;3.638;2023-07-09T11:58:12;16.10;;;10.55;;
78612;SDS011;67933;51.060;3.638;2023-07-09T12:00:42;16.20;;;9.68;;
78612;SDS011;67933;51.060;3.638;2023-07-09T12:03:11;14.48;;;9.63;;
78612;SDS011;67933;51.060;3.638;2023-07-09T12:05:44;19.95;;;11.30;;
78612;SDS011;67933;51.060;3.638;2023-07-09T12:08:16;17.80;;;10.75;;
78612;SDS011;67933;51.060;3.638;2023-07-09T12:10:43;18.35;;;12.10;;
78612;SDS011;67933;51.060;3.638;2023-07-09T12:13:09;18.13;;;12.48;;
78612;SDS011;67933;51.060;3.638;2023-07-09T12:15:38;14.68;;;10.60;;
78612;SDS011;67933;51.060;3.638;2023-07-09T12:18:10;15.65;;;10.40;;
78612;SDS011;67933;51.060;3.638;2023-07-09T12:20:37;14.45;;;9.65;;
78612;SDS011;67933;51.060;3.638;2023-07-09T12:25:50;14.38;;;8.50;;
78612;SDS011;67933;51.060;3.638;2023-07-09T12:28:17;12.00;;;8.25;;
78612;SDS011;67933;51.060;3.638;2023-07-09T12:33:12;12.23;;;7.25;;
78612;SDS011;67933;51.060;3.638;2023-07-09T12:35:41;10.73;;;6.68;;
78612;SDS011;67933;51.060;3.638;2023-07-09T12:38:15;10.88;;;6.43;;
78612;SDS011;67933;51.060;3.638;2023-07-09T12:40:43;11.07;;;6.55;;
78612;SDS011;67933;51.060;3.638;2023-07-09T12:43:09;10.57;;;5.80;;
78612;SDS011;67933;51.060;3.638;2023-07-09T12:45:36;11.13;;;6.70;;
78612;SDS011;67933;51.060;3.638;2023-07-09T12:48:02;10.20;;;7.03;;
78612;SDS011;67933;51.060;3.638;2023-07-09T12:50:34;12.43;;;7.88;;
78612;SDS011;67933;51.060;3.638;2023-07-09T12:53:02;12.70;;;7.45;;
78612;SDS011;67933;51.060;3.638;2023-07-09T12:55:40;12.98;;;8.65;;
78612;SDS011;67933;51.060;3.638;2023-07-09T12:58:09;13.52;;;8.40;;
78612;SDS011;67933;51.060;3.638;2023-07-09T13:00:47;13.80;;;8.93;;
78612;SDS011;67933;51.060;3.638;2023-07-09T13:03:17;15.52;;;8.80;;
78612;SDS011;67933;51.060;3.638;2023-07-09T13:08:55;16.23;;;9.40;;
78612;SDS011;67933;51.060;3.638;2023-07-09T13:11:23;14.52;;;9.50;;
78612;SDS011;67933;51.060;3.638;2023-07-09T13:13:55;14.60;;;9.50;;
78612;SDS011;67933;51.060;3.638;2023-07-09T13:16:22;12.77;;;9.15;;
78612;SDS011;67933;51.060;3.638;2023-07-09T13:18:48;18.00;;;10.05;;
78612;SDS011;67933;51.060;3.638;2023-07-09T13:21:15;13.32;;;8.23;;
78612;SDS011;67933;51.060;3.638;2023-07-09T13:23:42;12.40;;;7.80;;
78612;SDS011;67933;51.060;3.638;2023-07-09T13:26:08;11.95;;;7.82;;
78612;SDS011;67933;51.060;3.638;2023-07-09T13:28:33;9.95;;;7.32;;
78612;SDS011;67933;51.060;3.638;2023-07-09T13:31:13;14.30;;;7.40;;
78612;SDS011;67933;51.060;3.638;2023-07-09T13:33:40;12.02;;;6.97;;
78612;SDS011;67933;51.060;3.638;2023-07-09T13:36:06;13.93;;;6.75;;
78612;SDS011;67933;51.060;3.638;2023-07-09T13:38:32;13.15;;;7.72;;
78612;SDS011;67933;51.060;3.638;2023-07-09T13:40:59;10.73;;;7.40;;
78612;SDS011;67933;51.060;3.638;2023-07-09T13:43:30;15.07;;;7.47;;
78612;SDS011;67933;51.060;3.638;2023-07-09T13:45:58;12.23;;;6.65;;
78612;SDS011;67933;51.060;3.638;2023-07-09T13:48:25;10.85;;;6.43;;
78612;SDS011;67933;51.060;3.638;2023-07-09T13:50:52;11.35;;;6.82;;
78612;SDS011;67933;51.060;3.638;2023-07-09T13:55:46;12.57;;;7.00;;
78612;SDS011;67933;51.060;3.638;2023-07-09T13:58:13;9.63;;;6.03;;
78612;SDS011;67933;51.060;3.638;2023-07-09T14:00:41;9.15;;;5.95;;
78612;SDS011;67933;51.060;3.638;2023-07-09T14:05:47;9.50;;;6.30;;
78612;SDS011;67933;51.060;3.638;2023-07-09T14:08:14;9.50;;;6.38;;
78612;SDS011;67933;51.060;3.638;2023-07-09T14:10:39;9.75;;;5.75;;
78612;SDS011;67933;51.060;3.638;2023-07-09T14:13:05;10.27;;;6.15;;
78612;SDS011;67933;51.060;3.638;2023-07-09T14:15:38;10.52;;;6.70;;
78612;SDS011;67933;51.060;3.638;2023-07-09T14:18:04;8.48;;;5.50;;
78612;SDS011;67933;51.060;3.638;2023-07-09T14:20:34;10.23;;;5.82;;
78612;SDS011;67933;51.060;3.638;2023-07-09T14:23:00;8.27;;;5.68;;
78612;SDS011;67933;51.060;3.638;2023-07-09T14:25:25;9.70;;;6.63;;
78612;SDS011;67933;51.060;3.638;2023-07-09T14:27:53;7.80;;;5.30;;
78612;SDS011;67933;51.060;3.638;2023-07-09T14:30:20;8.48;;;5.72;;
78612;SDS011;67933;51.060;3.638;2023-07-09T14:32:47;8.43;;;5.53;;
78612;SDS011;67933;51.060;3.638;2023-07-09T14:37:42;8.30;;;5.13;;
78612;SDS011;67933;51.060;3.638;2023-07-09T14:40:08;11.27;;;5.28;;
78612;SDS011;67933;51.060;3.638;2023-07-09T14:42:35;10.00;;;5.20;;
78612;SDS011;67933;51.060;3.638;2023-07-09T14:45:02;9.50;;;5.57;;
78612;SDS011;67933;51.060;3.638;2023-07-09T14:49:54;7.63;;;5.33;;
78612;SDS011;67933;51.060;3.638;2023-07-09T14:52:20;9.63;;;4.93;;
78612;SDS011;67933;51.060;3.638;2023-07-09T14:57:17;8.35;;;4.55;;
78612;SDS011;67933;51.060;3.638;2023-07-09T14:59:46;7.80;;;4.88;;
78612;SDS011;67933;51.060;3.638;2023-07-09T15:04:47;7.45;;;3.90;;
78612;SDS011;67933;51.060;3.638;2023-07-09T15:07:13;5.70;;;3.60;;
78612;SDS011;67933;51.060;3.638;2023-07-09T15:09:39;7.88;;;4.13;;
78612;SDS011;67933;51.060;3.638;2023-07-09T15:12:08;5.45;;;3.33;;
78612;SDS011;67933;51.060;3.638;2023-07-09T15:14:40;7.03;;;3.55;;
78612;SDS011;67933;51.060;3.638;2023-07-09T15:17:07;6.60;;;3.70;;
78612;SDS011;67933;51.060;3.638;2023-07-09T15:19:35;7.88;;;3.22;;
78612;SDS011;67933;51.060;3.638;2023-07-09T15:22:00;4.78;;;2.75;;
78612;SDS011;67933;51.060;3.638;2023-07-09T15:24:32;6.88;;;2.85;;
78612;SDS011;67933;51.060;3.638;2023-07-09T15:27:00;5.55;;;3.30;;
78612;SDS011;67933;51.060;3.638;2023-07-09T15:29:29;6.75;;;2.85;;
78612;SDS011;67933;51.060;3.638;2023-07-09T15:31:55;4.32;;;2.50;;
78612;SDS011;67933;51.060;3.638;2023-07-09T15:34:21;3.85;;;2.50;;
78612;SDS011;67933;51.060;3.638;2023-07-09T15:36:50;4.40;;;2.53;;
78612;SDS011;67933;51.060;3.638;2023-07-09T15:39:17;5.03;;;2.55;;
78612;SDS011;67933;51.060;3.638;2023-07-09T15:41:45;6.63;;;3.55;;
78612;SDS011;67933;51.060;3.638;2023-07-09T15:44:11;5.50;;;2.80;;
78612;SDS011;67933;51.060;3.638;2023-07-09T15:49:04;5.50;;;2.33;;
78612;SDS011;67933;51.060;3.638;2023-07-09T15:51:29;4.88;;;2.50;;
78612;SDS011;67933;51.060;3.638;2023-07-09T15:53:56;5.10;;;2.47;;
78612;SDS011;67933;51.060;3.638;2023-07-09T15:56:25;4.32;;;2.30;;
78612;SDS011;67933;51.060;3.638;2023-07-09T16:01:21;5.72;;;2.10;;
78612;SDS011;67933;51.060;3.638;2023-07-09T16:04:00;4.90;;;2.00;;
78612;SDS011;67933;51.060;3.638;2023-07-09T16:06:27;6.55;;;2.65;;
78612;SDS011;67933;51.060;3.638;2023-07-09T16:08:53;4.68;;;2.30;;